sensor_id;sensor_type;location;lat;lon;timestamp;pressure;altitude;pressure_sealevel;temperature;humidity
33151;BME280;19508;42.578;23.416;2024-02-26T00:02:23;93247.03;;;7.86;92.20
33151;BME280;19508;42.578;23.416;2024-02-26T00:04:48;93238.00;;;8.14;91.66
33151;BME280;19508;42.578;23.416;2024-02-26T00:07:13;93243.16;;;8.20;91.93
33151;BME280;19508;42.578;23.416;2024-02-26T00:09:39;93244.47;;;8.45;91.72
33151;BME280;19508;42.578;23.416;2024-02-26T00:12:04;93247.28;;;8.55;91.17
33151;BME280;19508;42.578;23.416;2024-02-26T00:14:31;93239.97;;;8.51;91.05
33151;BME280;19508;42.578;23.416;2024-02-26T00:17:27;93232.03;;;8.61;90.98
33151;BME280;19508;42.578;23.416;2024-02-26T00:19:53;93237.59;;;8.54;90.95
33151;BME280;19508;42.578;23.416;2024-02-26T00:22:18;93230.13;;;8.61;90.06
33151;BME280;19508;42.578;23.416;2024-02-26T00:24:44;93224.03;;;8.66;89.56
33151;BME280;19508;42.578;23.416;2024-02-26T00:27:09;93217.31;;;8.68;88.90
33151;BME280;19508;42.578;23.416;2024-02-26T00:29:34;93215.19;;;8.70;88.72
33151;BME280;19508;42.578;23.416;2024-02-26T00:32:00;93216.47;;;8.63;88.93
33151;BME280;19508;42.578;23.416;2024-02-26T00:34:25;93213.78;;;8.63;89.21
33151;BME280;19508;42.578;23.416;2024-02-26T00:36:51;93211.94;;;8.63;89.52
33151;BME280;19508;42.578;23.416;2024-02-26T00:39:16;93217.41;;;8.79;89.01
33151;BME280;19508;42.578;23.416;2024-02-26T00:41:41;93199.72;;;8.83;88.77
33151;BME280;19508;42.578;23.416;2024-02-26T00:44:07;93204.41;;;8.97;88.74
33151;BME280;19508;42.578;23.416;2024-02-26T00:46:33;93199.78;;;8.93;88.54
33151;BME280;19508;42.578;23.416;2024-02-26T00:48:58;93211.56;;;8.87;89.18
33151;BME280;19508;42.578;23.416;2024-02-26T00:51:23;93204.16;;;8.67;89.83
33151;BME280;19508;42.578;23.416;2024-02-26T00:53:49;93206.94;;;8.77;89.79
33151;BME280;19508;42.578;23.416;2024-02-26T00:56:14;93196.13;;;8.67;89.16
33151;BME280;19508;42.578;23.416;2024-02-26T00:58:40;93203.44;;;8.76;89.63
33151;BME280;19508;42.578;23.416;2024-02-26T01:01:05;93200.19;;;8.74;88.99
33151;BME280;19508;42.578;23.416;2024-02-26T01:03:30;93202.34;;;8.77;89.06
33151;BME280;19508;42.578;23.416;2024-02-26T01:05:56;93197.03;;;8.83;88.21
33151;BME280;19508;42.578;23.416;2024-02-26T01:08:21;93190.97;;;8.60;89.00
33151;BME280;19508;42.578;23.416;2024-02-26T01:10:47;93192.69;;;8.76;88.43
33151;BME280;19508;42.578;23.416;2024-02-26T01:13:12;93175.72;;;8.66;88.13
33151;BME280;19508;42.578;23.416;2024-02-26T01:15:37;93194.31;;;8.77;88.13
33151;BME280;19508;42.578;23.416;2024-02-26T01:18:03;93179.75;;;8.68;88.30
33151;BME280;19508;42.578;23.416;2024-02-26T01:20:28;93193.81;;;8.81;88.14
33151;BME280;19508;42.578;23.416;2024-02-26T01:22:54;93192.03;;;8.59;88.77
33151;BME280;19508;42.578;23.416;2024-02-26T01:25:19;93195.03;;;8.68;88.62
33151;BME280;19508;42.578;23.416;2024-02-26T01:27:45;93194.78;;;8.69;88.54
33151;BME280;19508;42.578;23.416;2024-02-26T01:30:10;93177.25;;;8.57;88.93
33151;BME280;19508;42.578;23.416;2024-02-26T01:32:36;93194.09;;;8.47;89.76
33151;BME280;19508;42.578;23.416;2024-02-26T01:35:02;93189.81;;;8.51;89.45
33151;BME280;19508;42.578;23.416;2024-02-26T01:37:32;93187.47;;;8.60;89.38
33151;BME280;19508;42.578;23.416;2024-02-26T01:39:58;93178.56;;;8.54;90.04
33151;BME280;19508;42.578;23.416;2024-02-26T01:42:23;93177.47;;;8.50;89.83
33151;BME280;19508;42.578;23.416;2024-02-26T01:44:49;93174.91;;;8.65;89.30
33151;BME280;19508;42.578;23.416;2024-02-26T01:47:14;93164.94;;;8.61;89.24
33151;BME280;19508;42.578;23.416;2024-02-26T01:49:40;93169.97;;;8.52;89.82
33151;BME280;19508;42.578;23.416;2024-02-26T01:52:06;93169.47;;;8.55;90.52
33151;BME280;19508;42.578;23.416;2024-02-26T01:54:37;93173.28;;;8.64;90.56
33151;BME280;19508;42.578;23.416;2024-02-26T01:57:04;93171.69;;;8.63;90.72
33151;BME280;19508;42.578;23.416;2024-02-26T01:59:30;93165.78;;;8.66;90.13
33151;BME280;19508;42.578;23.416;2024-02-26T02:01:58;93171.69;;;8.36;91.25
33151;BME280;19508;42.578;23.416;2024-02-26T02:04:24;93161.09;;;8.46;90.88
33151;BME280;19508;42.578;23.416;2024-02-26T02:06:50;93164.91;;;8.56;90.67
33151;BME280;19508;42.578;23.416;2024-02-26T02:09:18;93159.03;;;8.59;90.43
33151;BME280;19508;42.578;23.416;2024-02-26T02:11:43;93160.41;;;8.66;89.71
33151;BME280;19508;42.578;23.416;2024-02-26T02:14:10;93153.66;;;8.59;89.36
33151;BME280;19508;42.578;23.416;2024-02-26T02:16:35;93168.75;;;8.70;89.43
33151;BME280;19508;42.578;23.416;2024-02-26T02:19:00;93167.63;;;8.61;89.54
33151;BME280;19508;42.578;23.416;2024-02-26T02:21:26;93148.50;;;8.52;90.15
33151;BME280;19508;42.578;23.416;2024-02-26T02:23:51;93160.41;;;8.66;89.81
33151;BME280;19508;42.578;23.416;2024-02-26T02:26:17;93164.13;;;8.60;89.66
33151;BME280;19508;42.578;23.416;2024-02-26T02:28:44;93160.66;;;8.33;90.70
33151;BME280;19508;42.578;23.416;2024-02-26T02:31:11;93164.06;;;8.50;89.87
33151;BME280;19508;42.578;23.416;2024-02-26T02:33:37;93170.00;;;8.57;89.58
33151;BME280;19508;42.578;23.416;2024-02-26T02:36:03;93167.31;;;8.57;89.57
33151;BME280;19508;42.578;23.416;2024-02-26T02:38:28;93166.19;;;8.48;90.06
33151;BME280;19508;42.578;23.416;2024-02-26T02:40:55;93171.09;;;8.56;90.30
33151;BME280;19508;42.578;23.416;2024-02-26T02:43:21;93173.06;;;8.71;89.44
33151;BME280;19508;42.578;23.416;2024-02-26T02:45:46;93166.59;;;8.67;89.34
33151;BME280;19508;42.578;23.416;2024-02-26T02:48:11;93163.66;;;8.68;89.98
33151;BME280;19508;42.578;23.416;2024-02-26T02:50:37;93164.50;;;8.74;90.01
33151;BME280;19508;42.578;23.416;2024-02-26T02:53:03;93175.66;;;8.61;90.56
33151;BME280;19508;42.578;23.416;2024-02-26T02:55:28;93169.31;;;8.72;90.28
33151;BME280;19508;42.578;23.416;2024-02-26T02:57:54;93171.81;;;8.84;89.36
33151;BME280;19508;42.578;23.416;2024-02-26T03:00:19;93180.88;;;8.77;89.43
33151;BME280;19508;42.578;23.416;2024-02-26T03:02:45;93178.19;;;8.72;89.57
33151;BME280;19508;42.578;23.416;2024-02-26T03:05:11;93178.72;;;8.74;90.04
33151;BME280;19508;42.578;23.416;2024-02-26T03:07:37;93178.78;;;8.85;89.32
33151;BME280;19508;42.578;23.416;2024-02-26T03:10:02;93168.09;;;8.53;90.38
33151;BME280;19508;42.578;23.416;2024-02-26T03:12:28;93168.13;;;8.58;89.91
33151;BME280;19508;42.578;23.416;2024-02-26T03:14:54;93182.47;;;8.73;89.88
33151;BME280;19508;42.578;23.416;2024-02-26T03:17:20;93184.69;;;8.82;89.23
33151;BME280;19508;42.578;23.416;2024-02-26T03:19:46;93183.69;;;8.93;88.04
33151;BME280;19508;42.578;23.416;2024-02-26T03:22:12;93178.31;;;8.93;87.84
33151;BME280;19508;42.578;23.416;2024-02-26T03:24:38;93178.75;;;8.80;88.39
33151;BME280;19508;42.578;23.416;2024-02-26T03:27:03;93167.44;;;8.72;88.65
33151;BME280;19508;42.578;23.416;2024-02-26T03:29:34;93165.56;;;8.73;88.59
33151;BME280;19508;42.578;23.416;2024-02-26T03:32:00;93155.13;;;8.76;88.72
33151;BME280;19508;42.578;23.416;2024-02-26T03:34:25;93158.81;;;8.65;88.66
33151;BME280;19508;42.578;23.416;2024-02-26T03:36:51;93160.94;;;8.63;89.07
33151;BME280;19508;42.578;23.416;2024-02-26T03:39:17;93173.63;;;8.73;87.99
33151;BME280;19508;42.578;23.416;2024-02-26T03:41:42;93166.41;;;8.79;87.83
33151;BME280;19508;42.578;23.416;2024-02-26T03:44:08;93145.16;;;8.72;87.77
33151;BME280;19508;42.578;23.416;2024-02-26T03:46:33;93161.00;;;8.73;87.97
33151;BME280;19508;42.578;23.416;2024-02-26T03:48:58;93158.22;;;8.58;88.54
33151;BME280;19508;42.578;23.416;2024-02-26T03:51:24;93151.81;;;8.64;88.43
33151;BME280;19508;42.578;23.416;2024-02-26T03:53:49;93156.41;;;8.69;88.05
33151;BME280;19508;42.578;23.416;2024-02-26T03:56:15;93160.94;;;8.63;89.18
33151;BME280;19508;42.578;23.416;2024-02-26T03:58:40;93153.59;;;8.48;90.67
33151;BME280;19508;42.578;23.416;2024-02-26T04:01:09;93154.97;;;8.56;90.49
33151;BME280;19508;42.578;23.416;2024-02-26T04:03:35;93153.84;;;8.47;91.00
33151;BME280;19508;42.578;23.416;2024-02-26T04:06:01;93169.00;;;8.63;90.37
33151;BME280;19508;42.578;23.416;2024-02-26T04:08:27;93152.31;;;8.61;90.20
33151;BME280;19508;42.578;23.416;2024-02-26T04:10:52;93151.00;;;8.64;89.32
33151;BME280;19508;42.578;23.416;2024-02-26T04:13:18;93147.47;;;8.58;88.91
33151;BME280;19508;42.578;23.416;2024-02-26T04:15:43;93149.22;;;8.42;89.33
33151;BME280;19508;42.578;23.416;2024-02-26T04:18:09;93142.03;;;8.48;89.22
33151;BME280;19508;42.578;23.416;2024-02-26T04:20:34;93149.53;;;8.46;89.44
33151;BME280;19508;42.578;23.416;2024-02-26T04:23:00;93143.66;;;8.49;89.39
33151;BME280;19508;42.578;23.416;2024-02-26T04:25:25;93124.22;;;8.37;89.80
33151;BME280;19508;42.578;23.416;2024-02-26T04:27:50;93139.81;;;8.40;89.90
33151;BME280;19508;42.578;23.416;2024-02-26T04:30:16;93137.16;;;8.40;89.71
33151;BME280;19508;42.578;23.416;2024-02-26T04:32:43;93133.72;;;8.50;90.06
33151;BME280;19508;42.578;23.416;2024-02-26T04:35:08;93135.06;;;8.47;90.44
33151;BME280;19508;42.578;23.416;2024-02-26T04:37:34;93129.69;;;8.47;90.08
33151;BME280;19508;42.578;23.416;2024-02-26T04:40:00;93137.56;;;8.59;90.39
33151;BME280;19508;42.578;23.416;2024-02-26T04:42:26;93121.72;;;8.62;90.45
33151;BME280;19508;42.578;23.416;2024-02-26T04:44:52;93140.03;;;8.70;89.80
33151;BME280;19508;42.578;23.416;2024-02-26T04:47:18;93140.56;;;8.67;89.78
33151;BME280;19508;42.578;23.416;2024-02-26T04:49:43;93141.31;;;8.63;90.23
33151;BME280;19508;42.578;23.416;2024-02-26T04:52:08;93141.16;;;8.74;89.52
33151;BME280;19508;42.578;23.416;2024-02-26T04:54:34;93151.09;;;8.79;89.57
33151;BME280;19508;42.578;23.416;2024-02-26T04:56:59;93152.97;;;8.79;89.12
33151;BME280;19508;42.578;23.416;2024-02-26T04:59:25;93152.56;;;8.55;89.96
33151;BME280;19508;42.578;23.416;2024-02-26T05:01:50;93154.38;;;8.49;89.73
33151;BME280;19508;42.578;23.416;2024-02-26T05:04:18;93149.63;;;8.61;89.40
33151;BME280;19508;42.578;23.416;2024-02-26T05:06:43;93156.41;;;8.69;89.04
33151;BME280;19508;42.578;23.416;2024-02-26T05:09:08;93159.41;;;8.72;88.78
33151;BME280;19508;42.578;23.416;2024-02-26T05:11:34;93163.69;;;8.73;88.60
33151;BME280;19508;42.578;23.416;2024-02-26T05:14:00;93162.91;;;8.78;88.66
33151;BME280;19508;42.578;23.416;2024-02-26T05:16:26;93158.34;;;8.79;88.57
33151;BME280;19508;42.578;23.416;2024-02-26T05:18:52;93174.78;;;8.87;88.39
33151;BME280;19508;42.578;23.416;2024-02-26T05:21:18;93171.88;;;8.94;88.19
33151;BME280;19508;42.578;23.416;2024-02-26T05:23:43;93160.06;;;8.90;88.03
33151;BME280;19508;42.578;23.416;2024-02-26T05:26:09;93162.19;;;8.93;88.13
33151;BME280;19508;42.578;23.416;2024-02-26T05:28:34;93186.22;;;9.10;87.91
33151;BME280;19508;42.578;23.416;2024-02-26T05:31:01;93176.22;;;9.00;87.65
33151;BME280;19508;42.578;23.416;2024-02-26T05:33:26;93193.75;;;9.13;87.52
33151;BME280;19508;42.578;23.416;2024-02-26T05:35:52;93186.50;;;9.13;87.06
33151;BME280;19508;42.578;23.416;2024-02-26T05:38:17;93177.94;;;9.21;87.06
33151;BME280;19508;42.578;23.416;2024-02-26T05:40:42;93189.47;;;9.17;87.14
33151;BME280;19508;42.578;23.416;2024-02-26T05:43:08;93206.97;;;9.24;87.37
33151;BME280;19508;42.578;23.416;2024-02-26T05:45:33;93196.28;;;9.35;87.16
33151;BME280;19508;42.578;23.416;2024-02-26T05:47:59;93190.38;;;9.38;86.79
33151;BME280;19508;42.578;23.416;2024-02-26T05:50:24;93196.31;;;9.40;87.04
33151;BME280;19508;42.578;23.416;2024-02-26T05:52:50;93192.06;;;9.54;86.64
33151;BME280;19508;42.578;23.416;2024-02-26T05:55:16;93197.00;;;9.67;85.67
33151;BME280;19508;42.578;23.416;2024-02-26T05:57:41;93209.13;;;9.75;85.77
33151;BME280;19508;42.578;23.416;2024-02-26T06:00:07;93203.22;;;9.83;85.27
33151;BME280;19508;42.578;23.416;2024-02-26T06:02:32;93204.88;;;9.99;84.59
33151;BME280;19508;42.578;23.416;2024-02-26T06:04:58;93216.13;;;9.86;85.22
33151;BME280;19508;42.578;23.416;2024-02-26T06:07:24;93222.31;;;9.86;85.20
33151;BME280;19508;42.578;23.416;2024-02-26T06:09:50;93212.09;;;9.83;85.32
33151;BME280;19508;42.578;23.416;2024-02-26T06:12:15;93208.38;;;9.95;84.32
33151;BME280;19508;42.578;23.416;2024-02-26T06:14:43;93213.75;;;9.95;84.43
33151;BME280;19508;42.578;23.416;2024-02-26T06:17:08;93209.44;;;9.94;84.55
33151;BME280;19508;42.578;23.416;2024-02-26T06:19:34;93218.03;;;9.90;84.31
33151;BME280;19508;42.578;23.416;2024-02-26T06:21:59;93218.63;;;10.03;83.68
33151;BME280;19508;42.578;23.416;2024-02-26T06:24:25;93229.94;;;10.15;83.60
33151;BME280;19508;42.578;23.416;2024-02-26T06:26:50;93224.56;;;10.10;83.40
33151;BME280;19508;42.578;23.416;2024-02-26T06:29:15;93212.44;;;10.07;83.31
33151;BME280;19508;42.578;23.416;2024-02-26T06:31:41;93220.31;;;10.29;82.91
33151;BME280;19508;42.578;23.416;2024-02-26T06:34:06;93215.50;;;10.36;82.24
33151;BME280;19508;42.578;23.416;2024-02-26T06:36:32;93225.16;;;10.32;81.87
33151;BME280;19508;42.578;23.416;2024-02-26T06:38:58;93219.28;;;10.45;81.15
33151;BME280;19508;42.578;23.416;2024-02-26T06:41:23;93219.56;;;10.64;80.67
33151;BME280;19508;42.578;23.416;2024-02-26T06:43:56;93224.69;;;10.76;80.54
33151;BME280;19508;42.578;23.416;2024-02-26T06:46:22;93212.84;;;10.67;80.72
33151;BME280;19508;42.578;23.416;2024-02-26T06:48:51;93227.38;;;10.66;80.41
33151;BME280;19508;42.578;23.416;2024-02-26T06:51:16;93222.78;;;10.77;80.34
33151;BME280;19508;42.578;23.416;2024-02-26T06:53:42;93226.84;;;10.74;80.57
33151;BME280;19508;42.578;23.416;2024-02-26T06:56:07;93219.84;;;10.93;80.45
33151;BME280;19508;42.578;23.416;2024-02-26T06:58:32;93211.25;;;10.86;80.17
33151;BME280;19508;42.578;23.416;2024-02-26T07:00:58;93224.41;;;10.83;80.15
33151;BME280;19508;42.578;23.416;2024-02-26T07:03:23;93229.00;;;10.92;80.24
33151;BME280;19508;42.578;23.416;2024-02-26T07:05:51;93224.44;;;11.03;79.98
33151;BME280;19508;42.578;23.416;2024-02-26T07:08:17;93226.84;;;11.15;79.07
33151;BME280;19508;42.578;23.416;2024-02-26T07:10:42;93235.44;;;11.27;78.82
33151;BME280;19508;42.578;23.416;2024-02-26T07:13:08;93244.56;;;11.56;77.80
33151;BME280;19508;42.578;23.416;2024-02-26T07:15:34;93244.78;;;11.70;77.08
33151;BME280;19508;42.578;23.416;2024-02-26T07:17:59;93250.97;;;11.76;77.05
33151;BME280;19508;42.578;23.416;2024-02-26T07:20:29;93233.75;;;11.67;77.08
33151;BME280;19508;42.578;23.416;2024-02-26T07:22:55;93233.19;;;11.90;75.89
33151;BME280;19508;42.578;23.416;2024-02-26T07:25:20;93246.03;;;12.08;74.95
33151;BME280;19508;42.578;23.416;2024-02-26T07:27:46;93243.28;;;12.19;75.25
33151;BME280;19508;42.578;23.416;2024-02-26T07:30:12;93238.41;;;12.26;74.97
33151;BME280;19508;42.578;23.416;2024-02-26T07:32:38;93235.06;;;12.49;73.97
33151;BME280;19508;42.578;23.416;2024-02-26T07:35:04;93239.78;;;12.67;73.56
33151;BME280;19508;42.578;23.416;2024-02-26T07:37:30;93240.28;;;12.75;72.45
33151;BME280;19508;42.578;23.416;2024-02-26T07:39:55;93242.91;;;12.85;71.93
33151;BME280;19508;42.578;23.416;2024-02-26T07:42:21;93251.41;;;12.63;72.22
33151;BME280;19508;42.578;23.416;2024-02-26T07:44:46;93250.00;;;12.76;72.67
33151;BME280;19508;42.578;23.416;2024-02-26T07:47:12;93255.56;;;12.89;70.94
33151;BME280;19508;42.578;23.416;2024-02-26T07:49:38;93251.38;;;13.07;70.27
33151;BME280;19508;42.578;23.416;2024-02-26T07:52:04;93244.03;;;12.79;71.53
33151;BME280;19508;42.578;23.416;2024-02-26T07:54:30;93247.41;;;12.99;70.69
33151;BME280;19508;42.578;23.416;2024-02-26T07:56:55;93249.13;;;13.24;69.73
33151;BME280;19508;42.578;23.416;2024-02-26T07:59:21;93252.22;;;13.08;70.98
33151;BME280;19508;42.578;23.416;2024-02-26T08:01:50;93247.00;;;13.16;71.57
33151;BME280;19508;42.578;23.416;2024-02-26T08:04:16;93228.22;;;13.35;71.18
33151;BME280;19508;42.578;23.416;2024-02-26T08:06:41;93232.66;;;13.21;70.84
33151;BME280;19508;42.578;23.416;2024-02-26T08:09:08;93241.06;;;13.19;70.85
33151;BME280;19508;42.578;23.416;2024-02-26T08:11:34;93229.03;;;13.36;70.88
33151;BME280;19508;42.578;23.416;2024-02-26T08:13:59;93231.91;;;13.44;70.31
33151;BME280;19508;42.578;23.416;2024-02-26T08:16:25;93237.81;;;13.17;70.68
33151;BME280;19508;42.578;23.416;2024-02-26T08:18:50;93228.88;;;13.51;70.19
33151;BME280;19508;42.578;23.416;2024-02-26T08:21:15;93223.94;;;13.82;68.98
33151;BME280;19508;42.578;23.416;2024-02-26T08:23:43;93224.41;;;14.13;67.35
33151;BME280;19508;42.578;23.416;2024-02-26T08:26:08;93238.69;;;14.19;66.25
33151;BME280;19508;42.578;23.416;2024-02-26T08:28:37;93233.19;;;14.24;66.36
33151;BME280;19508;42.578;23.416;2024-02-26T08:31:02;93229.72;;;14.18;67.04
33151;BME280;19508;42.578;23.416;2024-02-26T08:33:28;93232.34;;;14.28;66.77
33151;BME280;19508;42.578;23.416;2024-02-26T08:35:54;93229.97;;;14.46;65.82
33151;BME280;19508;42.578;23.416;2024-02-26T08:38:19;93225.97;;;14.38;65.59
33151;BME280;19508;42.578;23.416;2024-02-26T08:40:44;93228.41;;;14.39;66.09
33151;BME280;19508;42.578;23.416;2024-02-26T08:43:10;93222.72;;;14.60;66.14
33151;BME280;19508;42.578;23.416;2024-02-26T08:45:35;93228.88;;;14.84;65.15
33151;BME280;19508;42.578;23.416;2024-02-26T08:48:01;93221.75;;;14.70;64.79
33151;BME280;19508;42.578;23.416;2024-02-26T08:50:26;93215.91;;;14.81;64.64
33151;BME280;19508;42.578;23.416;2024-02-26T08:52:52;93225.97;;;14.62;65.29
33151;BME280;19508;42.578;23.416;2024-02-26T08:55:18;93225.81;;;14.72;65.07
33151;BME280;19508;42.578;23.416;2024-02-26T08:57:43;93227.34;;;14.59;65.06
33151;BME280;19508;42.578;23.416;2024-02-26T09:00:09;93223.00;;;14.58;65.22
33151;BME280;19508;42.578;23.416;2024-02-26T09:02:35;93225.06;;;14.48;65.85
33151;BME280;19508;42.578;23.416;2024-02-26T09:05:00;93222.75;;;14.36;65.39
33151;BME280;19508;42.578;23.416;2024-02-26T09:07:26;93229.22;;;14.78;65.26
33151;BME280;19508;42.578;23.416;2024-02-26T09:09:51;93224.31;;;14.61;65.74
33151;BME280;19508;42.578;23.416;2024-02-26T09:12:16;93222.00;;;14.73;65.93
33151;BME280;19508;42.578;23.416;2024-02-26T09:14:42;93223.22;;;15.00;63.85
33151;BME280;19508;42.578;23.416;2024-02-26T09:17:07;93220.44;;;15.37;63.99
33151;BME280;19508;42.578;23.416;2024-02-26T09:19:32;93216.13;;;15.96;60.42
33151;BME280;19508;42.578;23.416;2024-02-26T09:21:58;93204.31;;;15.60;59.70
33151;BME280;19508;42.578;23.416;2024-02-26T09:24:24;93215.97;;;15.14;60.79
33151;BME280;19508;42.578;23.416;2024-02-26T09:26:50;93217.97;;;14.89;63.01
33151;BME280;19508;42.578;23.416;2024-02-26T09:29:15;93212.97;;;14.97;63.30
33151;BME280;19508;42.578;23.416;2024-02-26T09:31:41;93207.31;;;14.93;62.50
33151;BME280;19508;42.578;23.416;2024-02-26T09:34:07;93206.34;;;15.03;62.97
33151;BME280;19508;42.578;23.416;2024-02-26T09:36:33;93205.78;;;15.38;61.95
33151;BME280;19508;42.578;23.416;2024-02-26T09:38:59;93206.16;;;15.32;61.48
33151;BME280;19508;42.578;23.416;2024-02-26T09:41:30;93201.56;;;15.32;60.37
33151;BME280;19508;42.578;23.416;2024-02-26T09:43:58;93210.94;;;15.21;60.82
33151;BME280;19508;42.578;23.416;2024-02-26T09:46:27;93202.91;;;15.16;61.03
33151;BME280;19508;42.578;23.416;2024-02-26T09:48:53;93212.81;;;15.07;61.51
33151;BME280;19508;42.578;23.416;2024-02-26T09:51:19;93202.66;;;15.31;60.59
33151;BME280;19508;42.578;23.416;2024-02-26T09:53:51;93205.38;;;15.45;59.18
33151;BME280;19508;42.578;23.416;2024-02-26T09:56:17;93201.06;;;15.30;59.61
33151;BME280;19508;42.578;23.416;2024-02-26T09:58:43;93199.53;;;15.38;58.48
33151;BME280;19508;42.578;23.416;2024-02-26T10:01:13;93196.88;;;15.19;60.50
33151;BME280;19508;42.578;23.416;2024-02-26T10:03:40;93199.41;;;15.29;59.18
33151;BME280;19508;42.578;23.416;2024-02-26T10:06:07;93207.41;;;15.39;58.90
33151;BME280;19508;42.578;23.416;2024-02-26T10:08:34;93204.75;;;15.34;59.17
33151;BME280;19508;42.578;23.416;2024-02-26T10:11:00;93206.28;;;15.40;59.51
33151;BME280;19508;42.578;23.416;2024-02-26T10:13:26;93201.91;;;14.93;60.47
33151;BME280;19508;42.578;23.416;2024-02-26T10:15:52;93194.75;;;15.48;58.70
33151;BME280;19508;42.578;23.416;2024-02-26T10:18:17;93181.56;;;15.42;56.83
33151;BME280;19508;42.578;23.416;2024-02-26T10:20:58;93188.13;;;15.55;57.39
33151;BME280;19508;42.578;23.416;2024-02-26T10:23:25;93187.47;;;15.63;57.14
33151;BME280;19508;42.578;23.416;2024-02-26T10:25:55;93181.44;;;15.66;56.60
33151;BME280;19508;42.578;23.416;2024-02-26T10:28:22;93168.56;;;15.71;56.79
33151;BME280;19508;42.578;23.416;2024-02-26T10:30:47;93177.63;;;15.94;56.24
33151;BME280;19508;42.578;23.416;2024-02-26T10:33:13;93167.84;;;16.34;54.65
33151;BME280;19508;42.578;23.416;2024-02-26T10:35:44;93160.63;;;16.16;54.26
33151;BME280;19508;42.578;23.416;2024-02-26T10:38:10;93162.16;;;15.81;55.03
33151;BME280;19508;42.578;23.416;2024-02-26T10:40:35;93150.75;;;15.51;55.45
33151;BME280;19508;42.578;23.416;2024-02-26T10:43:01;93163.84;;;16.04;55.05
33151;BME280;19508;42.578;23.416;2024-02-26T10:45:27;93159.44;;;15.67;56.14
33151;BME280;19508;42.578;23.416;2024-02-26T10:47:53;93160.63;;;16.02;55.34
33151;BME280;19508;42.578;23.416;2024-02-26T10:50:19;93162.72;;;16.19;53.85
33151;BME280;19508;42.578;23.416;2024-02-26T10:52:45;93153.28;;;16.17;54.87
33151;BME280;19508;42.578;23.416;2024-02-26T10:55:17;93158.53;;;15.99;54.47
33151;BME280;19508;42.578;23.416;2024-02-26T10:57:45;93152.88;;;15.96;54.85
33151;BME280;19508;42.578;23.416;2024-02-26T11:00:14;93138.94;;;15.75;53.85
33151;BME280;19508;42.578;23.416;2024-02-26T11:02:41;93143.56;;;15.74;55.02
33151;BME280;19508;42.578;23.416;2024-02-26T11:05:07;93146.88;;;15.99;54.29
33151;BME280;19508;42.578;23.416;2024-02-26T11:07:34;93152.50;;;16.02;54.38
33151;BME280;19508;42.578;23.416;2024-02-26T11:10:01;93157.03;;;15.93;54.04
33151;BME280;19508;42.578;23.416;2024-02-26T11:12:28;93145.34;;;15.79;54.04
33151;BME280;19508;42.578;23.416;2024-02-26T11:14:55;93153.78;;;16.19;53.43
33151;BME280;19508;42.578;23.416;2024-02-26T11:17:22;93147.38;;;15.73;54.89
33151;BME280;19508;42.578;23.416;2024-02-26T11:19:51;93146.28;;;15.28;56.70
33151;BME280;19508;42.578;23.416;2024-02-26T11:22:18;93151.69;;;15.28;56.43
33151;BME280;19508;42.578;23.416;2024-02-26T11:24:47;93148.59;;;15.35;56.43
33151;BME280;19508;42.578;23.416;2024-02-26T11:27:13;93137.09;;;15.57;55.63
33151;BME280;19508;42.578;23.416;2024-02-26T11:29:46;93153.91;;;15.86;54.47
33151;BME280;19508;42.578;23.416;2024-02-26T11:32:13;93150.19;;;15.68;55.48
33151;BME280;19508;42.578;23.416;2024-02-26T11:34:40;93146.53;;;15.59;54.57
33151;BME280;19508;42.578;23.416;2024-02-26T11:37:14;93128.28;;;15.65;54.75
33151;BME280;19508;42.578;23.416;2024-02-26T11:39:43;93143.16;;;15.81;54.91
33151;BME280;19508;42.578;23.416;2024-02-26T11:42:16;93130.09;;;15.83;53.33
33151;BME280;19508;42.578;23.416;2024-02-26T11:44:41;93145.94;;;16.03;52.58
33151;BME280;19508;42.578;23.416;2024-02-26T11:49:35;93135.25;;;16.21;52.65
33151;BME280;19508;42.578;23.416;2024-02-26T11:52:05;93139.47;;;16.27;51.85
33151;BME280;19508;42.578;23.416;2024-02-26T12:00:12;93120.25;;;16.96;49.32
33151;BME280;19508;42.578;23.416;2024-02-26T12:02:45;93112.91;;;17.58;47.14
33151;BME280;19508;42.578;23.416;2024-02-26T12:05:13;93113.28;;;17.34;47.69
33151;BME280;19508;42.578;23.416;2024-02-26T12:07:44;93111.50;;;18.09;46.15
33151;BME280;19508;42.578;23.416;2024-02-26T12:12:53;93113.19;;;17.70;47.11
33151;BME280;19508;42.578;23.416;2024-02-26T12:15:22;93115.91;;;17.70;46.38
33151;BME280;19508;42.578;23.416;2024-02-26T12:17:49;93102.66;;;17.55;47.47
33151;BME280;19508;42.578;23.416;2024-02-26T12:20:16;93104.31;;;18.04;45.01
33151;BME280;19508;42.578;23.416;2024-02-26T12:22:45;93117.47;;;18.20;44.79
33151;BME280;19508;42.578;23.416;2024-02-26T12:25:13;93111.16;;;17.93;44.61
33151;BME280;19508;42.578;23.416;2024-02-26T12:27:38;93119.28;;;18.50;43.70
33151;BME280;19508;42.578;23.416;2024-02-26T12:30:05;93114.63;;;18.51;42.61
33151;BME280;19508;42.578;23.416;2024-02-26T12:32:31;93114.09;;;18.14;43.77
33151;BME280;19508;42.578;23.416;2024-02-26T12:34:58;93108.72;;;18.57;43.54
33151;BME280;19508;42.578;23.416;2024-02-26T12:37:25;93128.88;;;18.30;42.96
33151;BME280;19508;42.578;23.416;2024-02-26T12:39:51;93130.16;;;18.24;42.86
33151;BME280;19508;42.578;23.416;2024-02-26T12:42:17;93130.09;;;17.98;43.67
33151;BME280;19508;42.578;23.416;2024-02-26T12:44:45;93109.84;;;17.51;43.37
33151;BME280;19508;42.578;23.416;2024-02-26T12:47:11;93120.00;;;17.99;43.65
33151;BME280;19508;42.578;23.416;2024-02-26T12:49:42;93116.22;;;18.52;42.24
33151;BME280;19508;42.578;23.416;2024-02-26T12:52:09;93119.16;;;18.64;40.92
33151;BME280;19508;42.578;23.416;2024-02-26T12:54:35;93125.03;;;18.31;41.88
33151;BME280;19508;42.578;23.416;2024-02-26T12:57:06;93105.66;;;18.59;41.12
33151;BME280;19508;42.578;23.416;2024-02-26T12:59:34;93119.88;;;18.21;41.65
33151;BME280;19508;42.578;23.416;2024-02-26T13:02:01;93135.81;;;17.57;42.19